sensor_id;sensor_type;location;lat;lon;timestamp;pressure;altitude;pressure_sealevel;temperature;humidity
12182;BME280;6154;51.550;12.138;2022-09-30T00:01:38;99699.66;;;12.09;56.17
12182;BME280;6154;51.550;12.138;2022-09-30T00:04:13;99698.09;;;12.06;56.22
12182;BME280;6154;51.550;12.138;2022-09-30T00:06:41;99708.81;;;12.05;56.25
12182;BME280;6154;51.550;12.138;2022-09-30T00:09:10;99709.88;;;12.02;56.08
12182;BME280;6154;51.550;12.138;2022-09-30T00:11:39;99710.22;;;11.98;56.69
12182;BME280;6154;51.550;12.138;2022-09-30T00:14:13;99709.59;;;11.94;56.79
12182;BME280;6154;51.550;12.138;2022-09-30T00:16:42;99711.59;;;11.91;57.01
12182;BME280;6154;51.550;12.138;2022-09-30T00:19:12;99726.91;;;11.87;56.64
12182;BME280;6154;51.550;12.138;2022-09-30T00:21:40;99720.88;;;11.85;56.50
12182;BME280;6154;51.550;12.138;2022-09-30T00:24:08;99723.62;;;11.84;56.80
12182;BME280;6154;51.550;12.138;2022-09-30T00:26:37;99731.03;;;11.78;57.20
12182;BME280;6154;51.550;12.138;2022-09-30T00:29:05;99734.97;;;11.73;57.57
12182;BME280;6154;51.550;12.138;2022-09-30T00:31:34;99732.41;;;11.71;57.60
12182;BME280;6154;51.550;12.138;2022-09-30T00:34:02;99729.25;;;11.66;57.94
12182;BME280;6154;51.550;12.138;2022-09-30T00:36:41;99726.72;;;11.65;57.69
12182;BME280;6154;51.550;12.138;2022-09-30T00:39:12;99726.72;;;11.65;58.00
12182;BME280;6154;51.550;12.138;2022-09-30T00:41:43;99725.97;;;11.63;57.66
12182;BME280;6154;51.550;12.138;2022-09-30T00:44:49;99727.66;;;11.64;57.32
12182;BME280;6154;51.550;12.138;2022-09-30T00:47:29;99723.09;;;11.66;58.43
12182;BME280;6154;51.550;12.138;2022-09-30T00:50:02;99723.31;;;11.63;57.98
12182;BME280;6154;51.550;12.138;2022-09-30T00:52:36;99720.03;;;11.59;57.01
12182;BME280;6154;51.550;12.138;2022-09-30T00:55:23;99719.06;;;11.60;56.55
12182;BME280;6154;51.550;12.138;2022-09-30T00:57:53;99722.56;;;11.61;56.89
12182;BME280;6154;51.550;12.138;2022-09-30T01:00:21;99726.28;;;11.58;56.80
12182;BME280;6154;51.550;12.138;2022-09-30T01:02:49;99725.56;;;11.56;56.63
12182;BME280;6154;51.550;12.138;2022-09-30T01:05:18;99727.47;;;11.54;57.07
12182;BME280;6154;51.550;12.138;2022-09-30T01:07:48;99729.28;;;11.54;57.16
12182;BME280;6154;51.550;12.138;2022-09-30T01:10:16;99723.12;;;11.53;56.85
12182;BME280;6154;51.550;12.138;2022-09-30T01:12:44;99722.28;;;11.52;57.02
12182;BME280;6154;51.550;12.138;2022-09-30T01:15:13;99725.25;;;11.48;57.36
12182;BME280;6154;51.550;12.138;2022-09-30T01:17:48;99731.38;;;11.48;56.99
12182;BME280;6154;51.550;12.138;2022-09-30T01:20:46;99729.69;;;11.47;57.24
12182;BME280;6154;51.550;12.138;2022-09-30T01:30:06;99742.09;;;11.34;59.19
12182;BME280;6154;51.550;12.138;2022-09-30T01:33:08;99737.94;;;11.30;58.68
12182;BME280;6154;51.550;12.138;2022-09-30T01:35:55;99736.03;;;11.32;57.96
12182;BME280;6154;51.550;12.138;2022-09-30T01:38:26;99738.69;;;11.32;57.59
12182;BME280;6154;51.550;12.138;2022-09-30T01:41:02;99736.38;;;11.28;57.35
12182;BME280;6154;51.550;12.138;2022-09-30T01:43:40;99742.63;;;11.27;57.40
12182;BME280;6154;51.550;12.138;2022-09-30T01:46:19;99723.47;;;11.23;57.87
12182;BME280;6154;51.550;12.138;2022-09-30T01:48:56;99744.22;;;11.16;57.92
12182;BME280;6154;51.550;12.138;2022-09-30T01:51:33;99741.78;;;11.13;57.78
12182;BME280;6154;51.550;12.138;2022-09-30T01:54:04;99736.50;;;11.13;57.85
12182;BME280;6154;51.550;12.138;2022-09-30T01:56:41;99732.22;;;11.11;57.68
12182;BME280;6154;51.550;12.138;2022-09-30T01:59:14;99736.78;;;11.09;58.20
12182;BME280;6154;51.550;12.138;2022-09-30T02:01:48;99749.28;;;11.07;58.28
12182;BME280;6154;51.550;12.138;2022-09-30T02:04:23;99737.97;;;11.05;58.49
12182;BME280;6154;51.550;12.138;2022-09-30T02:06:56;99732.84;;;11.02;58.34
12182;BME280;6154;51.550;12.138;2022-09-30T02:09:30;99730.19;;;11.02;57.46
12182;BME280;6154;51.550;12.138;2022-09-30T02:12:02;99737.31;;;11.01;57.52
12182;BME280;6154;51.550;12.138;2022-09-30T02:14:35;99730.41;;;10.99;57.33
12182;BME280;6154;51.550;12.138;2022-09-30T02:17:19;99741.97;;;10.98;57.31
12182;BME280;6154;51.550;12.138;2022-09-30T02:19:56;99744.63;;;10.98;57.10
12182;BME280;6154;51.550;12.138;2022-09-30T02:22:30;99745.34;;;11.00;57.93
12182;BME280;6154;51.550;12.138;2022-09-30T02:25:04;99746.31;;;10.99;58.32
12182;BME280;6154;51.550;12.138;2022-09-30T02:27:38;99735.81;;;10.97;58.03
12182;BME280;6154;51.550;12.138;2022-09-30T02:30:11;99741.75;;;11.01;57.56
12182;BME280;6154;51.550;12.138;2022-09-30T02:32:43;99747.03;;;11.01;57.77
12182;BME280;6154;51.550;12.138;2022-09-30T02:35:19;99745.34;;;11.00;58.67
12182;BME280;6154;51.550;12.138;2022-09-30T02:37:52;99754.25;;;10.99;58.96
12182;BME280;6154;51.550;12.138;2022-09-30T02:40:26;99769.41;;;10.97;57.78
12182;BME280;6154;51.550;12.138;2022-09-30T02:42:55;99766.53;;;11.00;58.17
12182;BME280;6154;51.550;12.138;2022-09-30T02:45:24;99761.56;;;10.95;59.94
12182;BME280;6154;51.550;12.138;2022-09-30T02:48:04;99771.63;;;11.03;59.27
12182;BME280;6154;51.550;12.138;2022-09-30T02:50:43;99773.97;;;11.07;58.84
12182;BME280;6154;51.550;12.138;2022-09-30T02:53:19;99774.06;;;11.06;57.83
12182;BME280;6154;51.550;12.138;2022-09-30T02:56:01;99775.22;;;11.02;58.03
12182;BME280;6154;51.550;12.138;2022-09-30T02:58:34;99777.84;;;11.02;58.04
12182;BME280;6154;51.550;12.138;2022-09-30T03:01:06;99784.00;;;11.02;57.96
12182;BME280;6154;51.550;12.138;2022-09-30T03:03:38;99782.22;;;11.03;57.69
12182;BME280;6154;51.550;12.138;2022-09-30T03:06:08;99790.91;;;11.05;57.30
12182;BME280;6154;51.550;12.138;2022-09-30T03:08:37;99787.09;;;11.09;57.47
12182;BME280;6154;51.550;12.138;2022-09-30T03:11:05;99786.13;;;11.10;58.29
12182;BME280;6154;51.550;12.138;2022-09-30T03:13:59;99783.72;;;11.07;58.68
12182;BME280;6154;51.550;12.138;2022-09-30T03:16:40;99785.72;;;11.03;61.76
12182;BME280;6154;51.550;12.138;2022-09-30T03:19:23;99784.31;;;10.98;61.92
12182;BME280;6154;51.550;12.138;2022-09-30T03:22:08;99793.22;;;10.97;59.98
12182;BME280;6154;51.550;12.138;2022-09-30T03:24:48;99796.00;;;11.08;59.22
12182;BME280;6154;51.550;12.138;2022-09-30T03:27:26;99806.38;;;11.11;58.24
12182;BME280;6154;51.550;12.138;2022-09-30T03:30:01;99808.72;;;11.15;58.64
12182;BME280;6154;51.550;12.138;2022-09-30T03:32:42;99807.12;;;11.13;57.97
12182;BME280;6154;51.550;12.138;2022-09-30T03:35:19;99804.78;;;11.21;58.51
12182;BME280;6154;51.550;12.138;2022-09-30T03:37:56;99808.28;;;11.21;57.87
12182;BME280;6154;51.550;12.138;2022-09-30T03:40:29;99802.06;;;11.22;58.13
12182;BME280;6154;51.550;12.138;2022-09-30T03:43:08;99808.22;;;11.23;58.25
12182;BME280;6154;51.550;12.138;2022-09-30T03:45:44;99817.84;;;11.24;58.23
12182;BME280;6154;51.550;12.138;2022-09-30T03:48:14;99819.53;;;11.25;57.86
12182;BME280;6154;51.550;12.138;2022-09-30T03:50:47;99823.25;;;11.22;58.11
12182;BME280;6154;51.550;12.138;2022-09-30T03:53:17;99822.94;;;11.27;57.95
12182;BME280;6154;51.550;12.138;2022-09-30T03:55:47;99812.34;;;11.27;57.83
12182;BME280;6154;51.550;12.138;2022-09-30T03:58:17;99824.84;;;11.25;58.48
12182;BME280;6154;51.550;12.138;2022-09-30T04:00:47;99821.62;;;11.20;59.90
12182;BME280;6154;51.550;12.138;2022-09-30T04:03:19;99817.81;;;11.11;60.81
12182;BME280;6154;51.550;12.138;2022-09-30T04:05:48;99828.16;;;11.02;61.00
12182;BME280;6154;51.550;12.138;2022-09-30T04:08:18;99828.38;;;10.99;60.66
12182;BME280;6154;51.550;12.138;2022-09-30T04:10:48;99830.06;;;11.00;59.60
12182;BME280;6154;51.550;12.138;2022-09-30T04:13:16;99829.22;;;10.99;59.79
12182;BME280;6154;51.550;12.138;2022-09-30T04:15:52;99833.78;;;10.97;60.48
12182;BME280;6154;51.550;12.138;2022-09-30T04:18:21;99828.38;;;10.99;60.38
12182;BME280;6154;51.550;12.138;2022-09-30T04:20:50;99825.28;;;10.92;61.09
12182;BME280;6154;51.550;12.138;2022-09-30T04:23:20;99822.00;;;10.88;61.58
12182;BME280;6154;51.550;12.138;2022-09-30T04:25:52;99830.69;;;10.90;60.62
12182;BME280;6154;51.550;12.138;2022-09-30T04:28:20;99839.28;;;10.94;59.83
12182;BME280;6154;51.550;12.138;2022-09-30T04:30:49;99849.78;;;10.96;59.53
12182;BME280;6154;51.550;12.138;2022-09-30T04:33:17;99840.87;;;10.97;59.76
12182;BME280;6154;51.550;12.138;2022-09-30T04:35:45;99852.06;;;10.87;60.36
12182;BME280;6154;51.550;12.138;2022-09-30T04:38:14;99847.41;;;10.91;59.42
12182;BME280;6154;51.550;12.138;2022-09-30T04:40:43;99849.97;;;10.92;58.96
12182;BME280;6154;51.550;12.138;2022-09-30T04:43:11;99853.38;;;10.94;58.79
12182;BME280;6154;51.550;12.138;2022-09-30T04:45:43;99862.91;;;10.97;58.77
12182;BME280;6154;51.550;12.138;2022-09-30T04:48:15;99869.78;;;11.00;59.03
12182;BME280;6154;51.550;12.138;2022-09-30T04:50:44;99863.34;;;11.04;59.08
12182;BME280;6154;51.550;12.138;2022-09-30T04:53:13;99874.59;;;11.07;58.68
12182;BME280;6154;51.550;12.138;2022-09-30T04:55:44;99882.31;;;11.10;58.82
12182;BME280;6154;51.550;12.138;2022-09-30T04:58:12;99878.63;;;11.13;59.01
12182;BME280;6154;51.550;12.138;2022-09-30T05:00:41;99878.31;;;11.17;59.24
12182;BME280;6154;51.550;12.138;2022-09-30T05:03:09;99876.41;;;11.19;59.16
12182;BME280;6154;51.550;12.138;2022-09-30T05:05:37;99874.59;;;11.20;58.77
12182;BME280;6154;51.550;12.138;2022-09-30T05:08:05;99876.63;;;11.16;59.61
12182;BME280;6154;51.550;12.138;2022-09-30T05:10:36;99878.63;;;11.13;60.05
12182;BME280;6154;51.550;12.138;2022-09-30T05:13:06;99878.06;;;11.08;60.39
12182;BME280;6154;51.550;12.138;2022-09-30T05:15:34;99879.97;;;11.06;59.93
12182;BME280;6154;51.550;12.138;2022-09-30T05:18:02;99881.78;;;11.05;59.20
12182;BME280;6154;51.550;12.138;2022-09-30T05:20:32;99896.81;;;11.05;59.09
12182;BME280;6154;51.550;12.138;2022-09-30T05:23:00;99888.78;;;11.06;59.12
12182;BME280;6154;51.550;12.138;2022-09-30T05:25:28;99891.53;;;11.05;58.85
12182;BME280;6154;51.550;12.138;2022-09-30T05:27:56;99897.78;;;11.04;59.34
12182;BME280;6154;51.550;12.138;2022-09-30T05:30:26;99898.06;;;10.99;59.58
12182;BME280;6154;51.550;12.138;2022-09-30T05:32:54;99896.38;;;10.98;59.20
12182;BME280;6154;51.550;12.138;2022-09-30T05:35:23;99908.13;;;10.94;59.93
12182;BME280;6154;51.550;12.138;2022-09-30T05:37:51;99898.00;;;10.86;60.74
12182;BME280;6154;51.550;12.138;2022-09-30T05:40:19;99898.22;;;10.83;61.28
12182;BME280;6154;51.550;12.138;2022-09-30T05:42:47;99906.06;;;10.85;61.74
12182;BME280;6154;51.550;12.138;2022-09-30T05:45:16;99911.16;;;10.88;61.61
12182;BME280;6154;51.550;12.138;2022-09-30T05:47:51;99916.22;;;10.91;61.36
12182;BME280;6154;51.550;12.138;2022-09-30T05:50:21;99922.00;;;10.98;60.44
12182;BME280;6154;51.550;12.138;2022-09-30T05:52:49;99922.34;;;11.06;60.06
12182;BME280;6154;51.550;12.138;2022-09-30T05:55:18;99921.00;;;11.13;60.05
12182;BME280;6154;51.550;12.138;2022-09-30T05:57:49;99925.13;;;11.17;59.49
12182;BME280;6154;51.550;12.138;2022-09-30T06:00:18;99923.78;;;11.24;59.63
12182;BME280;6154;51.550;12.138;2022-09-30T06:02:51;99927.09;;;11.28;60.47
12182;BME280;6154;51.550;12.138;2022-09-30T06:05:19;99934.91;;;11.29;61.59
12182;BME280;6154;51.550;12.138;2022-09-30T06:07:48;99935.28;;;11.37;60.23
12182;BME280;6154;51.550;12.138;2022-09-30T06:10:16;99936.56;;;11.44;59.63
12182;BME280;6154;51.550;12.138;2022-09-30T06:12:45;99939.56;;;11.52;60.21
12182;BME280;6154;51.550;12.138;2022-09-30T06:15:13;99938.41;;;11.57;60.99
12182;BME280;6154;51.550;12.138;2022-09-30T06:17:41;99947.44;;;11.67;60.70
12182;BME280;6154;51.550;12.138;2022-09-30T06:20:11;99948.50;;;11.77;60.52
12182;BME280;6154;51.550;12.138;2022-09-30T06:22:40;99943.34;;;11.88;60.46
12182;BME280;6154;51.550;12.138;2022-09-30T06:25:10;99944.75;;;11.94;61.21
12182;BME280;6154;51.550;12.138;2022-09-30T06:27:38;99946.09;;;11.99;61.14
12182;BME280;6154;51.550;12.138;2022-09-30T06:30:08;99948.47;;;12.04;61.71
12182;BME280;6154;51.550;12.138;2022-09-30T06:32:36;99951.75;;;12.07;61.75
12182;BME280;6154;51.550;12.138;2022-09-30T06:35:04;99956.19;;;12.20;61.43
12182;BME280;6154;51.550;12.138;2022-09-30T06:37:34;99955.56;;;12.29;61.56
12182;BME280;6154;51.550;12.138;2022-09-30T06:40:05;99955.03;;;12.36;62.19
12182;BME280;6154;51.550;12.138;2022-09-30T06:42:33;99957.44;;;12.52;61.69
12182;BME280;6154;51.550;12.138;2022-09-30T06:45:06;99959.34;;;12.63;61.42
12182;BME280;6154;51.550;12.138;2022-09-30T06:47:35;99952.31;;;12.75;61.78
12182;BME280;6154;51.550;12.138;2022-09-30T06:50:05;99952.78;;;12.92;61.24
12182;BME280;6154;51.550;12.138;2022-09-30T06:52:43;99953.59;;;13.06;61.21
12182;BME280;6154;51.550;12.138;2022-09-30T06:55:11;99960.56;;;13.19;61.16
12182;BME280;6154;51.550;12.138;2022-09-30T06:57:40;99955.13;;;13.34;61.20
12182;BME280;6154;51.550;12.138;2022-09-30T07:00:10;99963.97;;;13.45;61.25
12182;BME280;6154;51.550;12.138;2022-09-30T07:02:39;99972.41;;;13.63;60.64
12182;BME280;6154;51.550;12.138;2022-09-30T07:05:08;99977.38;;;13.79;60.39
12182;BME280;6154;51.550;12.138;2022-09-30T07:07:36;99984.31;;;13.93;60.55
12182;BME280;6154;51.550;12.138;2022-09-30T07:10:07;99994.53;;;14.10;59.78
12182;BME280;6154;51.550;12.138;2022-09-30T07:12:35;99987.78;;;14.17;60.62
12182;BME280;6154;51.550;12.138;2022-09-30T07:15:04;99993.25;;;14.27;60.46
12182;BME280;6154;51.550;12.138;2022-09-30T07:17:39;99993.66;;;14.45;59.47
12182;BME280;6154;51.550;12.138;2022-09-30T07:20:07;100003.59;;;14.65;59.01
12182;BME280;6154;51.550;12.138;2022-09-30T07:22:35;99990.59;;;14.83;59.46
12182;BME280;6154;51.550;12.138;2022-09-30T07:25:06;99993.75;;;14.99;59.18
12182;BME280;6154;51.550;12.138;2022-09-30T07:27:35;99995.41;;;15.11;58.75
12182;BME280;6154;51.550;12.138;2022-09-30T07:30:04;100000.13;;;15.30;58.66
12182;BME280;6154;51.550;12.138;2022-09-30T07:32:40;100014.88;;;15.45;58.24
12182;BME280;6154;51.550;12.138;2022-09-30T07:35:09;100017.75;;;15.53;57.92
12182;BME280;6154;51.550;12.138;2022-09-30T07:37:37;100013.84;;;15.69;58.59
12182;BME280;6154;51.550;12.138;2022-09-30T07:40:08;100015.75;;;15.78;58.56
12182;BME280;6154;51.550;12.138;2022-09-30T07:42:36;100021.75;;;15.91;58.06
12182;BME280;6154;51.550;12.138;2022-09-30T07:45:07;100030.87;;;16.09;58.71
12182;BME280;6154;51.550;12.138;2022-09-30T07:47:36;100038.59;;;16.24;57.94
12182;BME280;6154;51.550;12.138;2022-09-30T07:50:05;100040.91;;;16.38;57.88
12182;BME280;6154;51.550;12.138;2022-09-30T07:52:36;100035.97;;;16.54;58.25
12182;BME280;6154;51.550;12.138;2022-09-30T07:55:04;100037.47;;;16.68;57.63
12182;BME280;6154;51.550;12.138;2022-09-30T07:57:34;100045.06;;;16.73;57.42
12182;BME280;6154;51.550;12.138;2022-09-30T08:00:03;100042.44;;;16.61;57.36
12182;BME280;6154;51.550;12.138;2022-09-30T08:02:53;100050.87;;;16.57;57.24
12182;BME280;6154;51.550;12.138;2022-09-30T08:05:21;100052.00;;;16.54;57.26
12182;BME280;6154;51.550;12.138;2022-09-30T08:07:49;100057.50;;;16.62;57.36
12182;BME280;6154;51.550;12.138;2022-09-30T08:10:17;100064.56;;;16.84;57.45
12182;BME280;6154;51.550;12.138;2022-09-30T08:12:52;100068.16;;;17.04;57.36
12182;BME280;6154;51.550;12.138;2022-09-30T08:15:25;100063.97;;;17.21;57.30
12182;BME280;6154;51.550;12.138;2022-09-30T08:17:53;100067.03;;;17.47;57.64
12182;BME280;6154;51.550;12.138;2022-09-30T08:20:22;100067.87;;;17.57;57.21
12182;BME280;6154;51.550;12.138;2022-09-30T08:22:51;100071.19;;;17.80;57.23
12182;BME280;6154;51.550;12.138;2022-09-30T08:25:20;100073.31;;;18.05;57.32
12182;BME280;6154;51.550;12.138;2022-09-30T08:27:48;100073.16;;;18.36;57.45
12182;BME280;6154;51.550;12.138;2022-09-30T08:30:18;100069.31;;;18.58;57.07
12182;BME280;6154;51.550;12.138;2022-09-30T08:32:46;100070.97;;;18.78;56.91
12182;BME280;6154;51.550;12.138;2022-09-30T08:35:15;100075.16;;;18.90;56.74
12182;BME280;6154;51.550;12.138;2022-09-30T08:37:43;100079.69;;;18.90;56.19
12182;BME280;6154;51.550;12.138;2022-09-30T08:40:17;100071.53;;;18.82;56.36
12182;BME280;6154;51.550;12.138;2022-09-30T08:43:06;100083.53;;;18.78;55.92
12182;BME280;6154;51.550;12.138;2022-09-30T08:45:42;100087.94;;;18.69;55.54
12182;BME280;6154;51.550;12.138;2022-09-30T08:48:28;100083.84;;;18.55;56.03
12182;BME280;6154;51.550;12.138;2022-09-30T08:51:08;100086.69;;;18.44;54.76
12182;BME280;6154;51.550;12.138;2022-09-30T08:53:42;100087.53;;;18.45;56.04
12182;BME280;6154;51.550;12.138;2022-09-30T08:56:20;100090.91;;;18.47;56.13
12182;BME280;6154;51.550;12.138;2022-09-30T08:58:53;100085.56;;;18.47;55.80
12182;BME280;6154;51.550;12.138;2022-09-30T09:01:28;100089.38;;;18.44;55.90
12182;BME280;6154;51.550;12.138;2022-09-30T09:04:00;100094.59;;;18.46;56.07
12182;BME280;6154;51.550;12.138;2022-09-30T09:06:36;100099.09;;;18.55;56.01
12182;BME280;6154;51.550;12.138;2022-09-30T09:09:28;100097.94;;;18.57;56.22
12182;BME280;6154;51.550;12.138;2022-09-30T09:12:06;100094.13;;;18.70;55.84
12182;BME280;6154;51.550;12.138;2022-09-30T09:14:52;100096.66;;;18.71;56.19
12182;BME280;6154;51.550;12.138;2022-09-30T09:17:31;100099.19;;;18.82;55.38
12182;BME280;6154;51.550;12.138;2022-09-30T09:20:12;100097.31;;;18.92;55.46
12182;BME280;6154;51.550;12.138;2022-09-30T09:22:40;100089.09;;;19.04;55.86
12182;BME280;6154;51.550;12.138;2022-09-30T09:25:12;100086.31;;;19.23;55.98
12182;BME280;6154;51.550;12.138;2022-09-30T09:27:48;100081.84;;;19.41;55.94
12182;BME280;6154;51.550;12.138;2022-09-30T09:30:19;100081.66;;;19.52;55.45
12182;BME280;6154;51.550;12.138;2022-09-30T09:32:51;100076.88;;;19.74;55.63
12182;BME280;6154;51.550;12.138;2022-09-30T09:35:39;100082.56;;;19.89;54.63
12182;BME280;6154;51.550;12.138;2022-09-30T09:38:16;100081.66;;;19.98;54.01
12182;BME280;6154;51.550;12.138;2022-09-30T09:41:03;100076.12;;;19.99;54.00
12182;BME280;6154;51.550;12.138;2022-09-30T09:43:45;100075.91;;;20.10;54.05
12182;BME280;6154;51.550;12.138;2022-09-30T09:46:23;100075.63;;;20.39;54.42
12182;BME280;6154;51.550;12.138;2022-09-30T09:49:29;100071.44;;;20.55;53.54
12182;BME280;6154;51.550;12.138;2022-09-30T09:52:28;100069.72;;;20.80;52.96
12182;BME280;6154;51.550;12.138;2022-09-30T09:55:03;100075.50;;;20.85;51.99
12182;BME280;6154;51.550;12.138;2022-09-30T09:57:31;100074.94;;;21.07;53.82
12182;BME280;6154;51.550;12.138;2022-09-30T10:00:02;100075.28;;;21.12;53.43
12182;BME280;6154;51.550;12.138;2022-09-30T10:02:57;100071.78;;;21.20;53.13
12182;BME280;6154;51.550;12.138;2022-09-30T10:05:37;100074.72;;;21.27;51.45
12182;BME280;6154;51.550;12.138;2022-09-30T10:08:13;100070.38;;;21.42;52.98
12182;BME280;6154;51.550;12.138;2022-09-30T10:10:47;100064.19;;;21.49;51.66
12182;BME280;6154;51.550;12.138;2022-09-30T10:13:20;100061.00;;;21.54;51.78
12182;BME280;6154;51.550;12.138;2022-09-30T10:15:49;100062.00;;;21.53;52.42
12182;BME280;6154;51.550;12.138;2022-09-30T10:18:23;100058.84;;;21.66;52.24
12182;BME280;6154;51.550;12.138;2022-09-30T10:20:56;100063.06;;;21.68;51.21
12182;BME280;6154;51.550;12.138;2022-09-30T10:23:28;100050.94;;;21.80;51.30
12182;BME280;6154;51.550;12.138;2022-09-30T10:26:00;100053.31;;;21.92;51.50
12182;BME280;6154;51.550;12.138;2022-09-30T10:28:34;100056.53;;;21.87;51.49
12182;BME280;6154;51.550;12.138;2022-09-30T10:31:16;100070.69;;;21.89;51.79
12182;BME280;6154;51.550;12.138;2022-09-30T10:33:56;100068.81;;;21.90;50.63
12182;BME280;6154;51.550;12.138;2022-09-30T10:36:32;100062.09;;;21.86;49.15
12182;BME280;6154;51.550;12.138;2022-09-30T10:39:14;100059.56;;;21.92;50.02
12182;BME280;6154;51.550;12.138;2022-09-30T10:41:46;100045.59;;;22.05;50.68
12182;BME280;6154;51.550;12.138;2022-09-30T10:44:17;100051.34;;;22.10;51.04
12182;BME280;6154;51.550;12.138;2022-09-30T10:46:49;100053.87;;;22.12;50.64
12182;BME280;6154;51.550;12.138;2022-09-30T10:49:25;100047.47;;;22.13;50.55
12182;BME280;6154;51.550;12.138;2022-09-30T10:51:56;100049.84;;;22.16;49.87
12182;BME280;6154;51.550;12.138;2022-09-30T10:54:45;100053.56;;;22.15;50.00
12182;BME280;6154;51.550;12.138;2022-09-30T10:57:18;100053.38;;;22.24;47.63
12182;BME280;6154;51.550;12.138;2022-09-30T10:59:49;100059.41;;;21.86;48.28
12182;BME280;6154;51.550;12.138;2022-09-30T11:02:26;100051.53;;;22.25;50.25
12182;BME280;6154;51.550;12.138;2022-09-30T11:05:04;100047.81;;;22.34;48.74
12182;BME280;6154;51.550;12.138;2022-09-30T11:07:38;100052.34;;;22.33;49.39
12182;BME280;6154;51.550;12.138;2022-09-30T11:10:24;100053.38;;;22.41;49.43
12182;BME280;6154;51.550;12.138;2022-09-30T11:13:00;100047.63;;;22.44;47.82
12182;BME280;6154;51.550;12.138;2022-09-30T11:15:35;100046.28;;;22.31;48.50
12182;BME280;6154;51.550;12.138;2022-09-30T11:18:13;100052.00;;;22.45;49.05
12182;BME280;6154;51.550;12.138;2022-09-30T11:20:47;100053.50;;;22.63;47.76
12182;BME280;6154;51.550;12.138;2022-09-30T11:23:27;100051.81;;;22.62;47.94
12182;BME280;6154;51.550;12.138;2022-09-30T11:26:02;100048.25;;;22.70;47.63
12182;BME280;6154;51.550;12.138;2022-09-30T11:28:41;100041.19;;;22.69;47.69
12182;BME280;6154;51.550;12.138;2022-09-30T11:31:24;100041.84;;;22.79;46.99
12182;BME280;6154;51.550;12.138;2022-09-30T11:34:14;100043.03;;;22.77;47.21
12182;BME280;6154;51.550;12.138;2022-09-30T11:36:54;100032.06;;;22.86;46.60
12182;BME280;6154;51.550;12.138;2022-09-30T11:39:40;100033.75;;;22.79;46.32
12182;BME280;6154;51.550;12.138;2022-09-30T11:42:16;100038.81;;;22.90;45.96
12182;BME280;6154;51.550;12.138;2022-09-30T11:45:01;100032.91;;;22.71;45.85
12182;BME280;6154;51.550;12.138;2022-09-30T11:47:46;100038.50;;;22.85;47.55
12182;BME280;6154;51.550;12.138;2022-09-30T11:50:40;100040.63;;;22.98;46.38
12182;BME280;6154;51.550;12.138;2022-09-30T11:53:23;100038.59;;;23.00;45.75
12182;BME280;6154;51.550;12.138;2022-09-30T11:56:24;100037.41;;;22.94;46.20
12182;BME280;6154;51.550;12.138;2022-09-30T11:58:59;100037.81;;;23.22;44.40
12182;BME280;6154;51.550;12.138;2022-09-30T12:01:30;100043.78;;;23.10;46.30
12182;BME280;6154;51.550;12.138;2022-09-30T12:04:02;100030.53;;;23.31;47.70
12182;BME280;6154;51.550;12.138;2022-09-30T12:06:34;100039.88;;;23.20;46.32
12182;BME280;6154;51.550;12.138;2022-09-30T12:09:10;100038.22;;;23.42;47.55
12182;BME280;6154;51.550;12.138;2022-09-30T12:11:47;100038.41;;;23.41;46.42
12182;BME280;6154;51.550;12.138;2022-09-30T12:14:22;100031.25;;;23.56;45.48
12182;BME280;6154;51.550;12.138;2022-09-30T12:16:52;100028.81;;;23.69;45.52
12182;BME280;6154;51.550;12.138;2022-09-30T12:19:28;100031.41;;;23.55;46.92
12182;BME280;6154;51.550;12.138;2022-09-30T12:22:03;100033.75;;;23.66;46.48
12182;BME280;6154;51.550;12.138;2022-09-30T12:24:36;100035.62;;;23.65;46.68
12182;BME280;6154;51.550;12.138;2022-09-30T12:27:13;100029.06;;;23.83;46.35
12182;BME280;6154;51.550;12.138;2022-09-30T12:29:49;100022.16;;;23.80;45.52
12182;BME280;6154;51.550;12.138;2022-09-30T12:32:52;100035.81;;;23.87;45.59
12182;BME280;6154;51.550;12.138;2022-09-30T12:35:47;100035.12;;;23.62;43.82
12182;BME280;6154;51.550;12.138;2022-09-30T12:38:32;100029.66;;;23.70;44.41
12182;BME280;6154;51.550;12.138;2022-09-30T12:41:18;100039.69;;;23.84;43.98
12182;BME280;6154;51.550;12.138;2022-09-30T12:44:12;100040.84;;;23.67;43.83
12182;BME280;6154;51.550;12.138;2022-09-30T12:47:04;100045.03;;;23.92;43.03
12182;BME280;6154;51.550;12.138;2022-09-30T12:49:39;100043.97;;;24.01;43.28
12182;BME280;6154;51.550;12.138;2022-09-30T12:52:12;100039.47;;;24.17;46.29
12182;BME280;6154;51.550;12.138;2022-09-30T12:54:45;100044.44;;;24.28;44.92
12182;BME280;6154;51.550;12.138;2022-09-30T12:57:19;100037.34;;;24.04;45.58
12182;BME280;6154;51.550;12.138;2022-09-30T12:59:52;100039.44;;;23.71;45.18
12182;BME280;6154;51.550;12.138;2022-09-30T13:02:27;100042.19;;;23.63;46.19
12182;BME280;6154;51.550;12.138;2022-09-30T13:08:08;100038.94;;;23.98;42.95
12182;BME280;6154;51.550;12.138;2022-09-30T13:10:44;100034.97;;;24.24;44.83
12182;BME280;6154;51.550;12.138;2022-09-30T13:13:21;100026.41;;;24.20;42.85
12182;BME280;6154;51.550;12.138;2022-09-30T13:15:52;100040.44;;;24.01;42.61
12182;BME280;6154;51.550;12.138;2022-09-30T13:18:59;100031.69;;;24.14;44.80
12182;BME280;6154;51.550;12.138;2022-09-30T13:21:28;100030.13;;;24.19;41.04
12182;BME280;6154;51.550;12.138;2022-09-30T13:23:58;100029.72;;;24.07;42.69
12182;BME280;6154;51.550;12.138;2022-09-30T13:26:44;100025.34;;;24.06;44.10
12182;BME280;6154;51.550;12.138;2022-09-30T13:29:34;100024.63;;;23.90;39.28
12182;BME280;6154;51.550;12.138;2022-09-30T13:32:07;100032.38;;;24.16;40.41
12182;BME280;6154;51.550;12.138;2022-09-30T13:34:56;100030.25;;;24.26;44.44
12182;BME280;6154;51.550;12.138;2022-09-30T13:37:34;100022.56;;;24.15;40.47
12182;BME280;6154;51.550;12.138;2022-09-30T13:40:14;100026.91;;;24.01;40.39
12182;BME280;6154;51.550;12.138;2022-09-30T13:42:51;100032.91;;;24.11;41.30